Mostly Cloudy Current Weather (METAR) For Antalya Airport

All times on the weather descriptions are local

Observed at 01:20 - (40 mins ago)

Mostly Cloudy

21°C

Mostly Cloudy
Clouds: Broken Clouds at 3,000ft
Wind: 170° at 06 knots
Visibility: Greater than 10km
QNH: 1013
Dew Point: 14°C
Runway in Use: Runways 18L/C/R

Sunrise Today: 07:09
Sunset Today: 18:12

Forecast Weather (TAF) For Antalya Airport

Issued at 03:00 - (8 days 0 hrs ago)


Runway in Use: Unable to determine, wind is clam

Forecast valid until 03:00 on Friday

METAR/TAF RAW METAR / TAF

LTAI 222220Z 17006KT 9999 BKN030 21/14 Q1013 NOSIG RMK RWY18C 18007KT 150V210 RWY36R 16006KT RWY18L 16006KT

Weather Widget

Put weather from any of our airports on your website with our weather widget.

Find Another Search

Airport Search


Please Wait Please Wait - Loading
Close
Close

Login

Username:

Password:

Remember Me:

Remember me on this computer

Forgotten your password? Get a reset password sent to your registered e-mail address

Close

User Private Message

Subject:

Message: